sensor_id;sensor_type;location;lat;lon;timestamp;temperature;humidity
32322;DHT22;61553;48.994;8.940;2023-03-14T00:00:55;10.40;99.90
32322;DHT22;61553;48.994;8.940;2023-03-14T00:03:20;10.40;99.90
32322;DHT22;61553;48.994;8.940;2023-03-14T00:05:46;10.30;99.90
32322;DHT22;61553;48.994;8.940;2023-03-14T00:08:12;10.30;99.90
32322;DHT22;61553;48.994;8.940;2023-03-14T00:10:38;10.20;99.90
32322;DHT22;61553;48.994;8.940;2023-03-14T00:13:04;10.30;99.90
32322;DHT22;61553;48.994;8.940;2023-03-14T00:15:29;10.30;99.90
32322;DHT22;61553;48.994;8.940;2023-03-14T00:17:55;10.30;99.90
32322;DHT22;61553;48.994;8.940;2023-03-14T00:20:21;10.30;99.90
32322;DHT22;61553;48.994;8.940;2023-03-14T00:22:46;10.20;99.90
32322;DHT22;61553;48.994;8.940;2023-03-14T00:25:12;10.20;99.90
32322;DHT22;61553;48.994;8.940;2023-03-14T00:27:38;10.30;99.90
32322;DHT22;61553;48.994;8.940;2023-03-14T00:30:05;10.30;99.90
32322;DHT22;61553;48.994;8.940;2023-03-14T00:32:31;10.20;99.90
32322;DHT22;61553;48.994;8.940;2023-03-14T00:34:56;10.10;99.90
32322;DHT22;61553;48.994;8.940;2023-03-14T00:37:22;10.10;99.90
32322;DHT22;61553;48.994;8.940;2023-03-14T00:39:47;10.00;99.90
32322;DHT22;61553;48.994;8.940;2023-03-14T00:42:13;10.00;99.90
32322;DHT22;61553;48.994;8.940;2023-03-14T00:44:39;10.00;99.90
32322;DHT22;61553;48.994;8.940;2023-03-14T00:47:05;10.00;99.90
32322;DHT22;61553;48.994;8.940;2023-03-14T00:49:30;10.00;99.90
32322;DHT22;61553;48.994;8.940;2023-03-14T00:51:56;10.10;99.90
32322;DHT22;61553;48.994;8.940;2023-03-14T00:54:22;10.10;99.90
32322;DHT22;61553;48.994;8.940;2023-03-14T00:56:47;10.10;99.90
32322;DHT22;61553;48.994;8.940;2023-03-14T00:59:15;10.00;99.90
32322;DHT22;61553;48.994;8.940;2023-03-14T01:01:41;10.00;99.90
32322;DHT22;61553;48.994;8.940;2023-03-14T01:04:07;10.00;99.90
32322;DHT22;61553;48.994;8.940;2023-03-14T01:06:33;10.00;99.90
32322;DHT22;61553;48.994;8.940;2023-03-14T01:08:59;10.00;99.90
32322;DHT22;61553;48.994;8.940;2023-03-14T01:11:27;10.00;99.90
32322;DHT22;61553;48.994;8.940;2023-03-14T01:13:54;9.90;99.90
32322;DHT22;61553;48.994;8.940;2023-03-14T01:16:20;9.90;99.90
32322;DHT22;61553;48.994;8.940;2023-03-14T01:18:47;9.90;99.90
32322;DHT22;61553;48.994;8.940;2023-03-14T01:23:43;10.10;99.90
32322;DHT22;61553;48.994;8.940;2023-03-14T01:26:11;10.10;99.90
32322;DHT22;61553;48.994;8.940;2023-03-14T01:28:37;10.10;99.90
32322;DHT22;61553;48.994;8.940;2023-03-14T01:31:07;10.10;99.90
32322;DHT22;61553;48.994;8.940;2023-03-14T01:33:34;10.20;99.90
32322;DHT22;61553;48.994;8.940;2023-03-14T01:36:00;10.30;99.90
32322;DHT22;61553;48.994;8.940;2023-03-14T01:38:28;10.30;99.90
32322;DHT22;61553;48.994;8.940;2023-03-14T01:40:54;10.30;99.90
32322;DHT22;61553;48.994;8.940;2023-03-14T01:43:20;10.30;99.90
32322;DHT22;61553;48.994;8.940;2023-03-14T01:51:02;10.20;99.90
32322;DHT22;61553;48.994;8.940;2023-03-14T01:53:29;10.20;99.90
32322;DHT22;61553;48.994;8.940;2023-03-14T01:55:55;10.10;99.90
32322;DHT22;61553;48.994;8.940;2023-03-14T01:58:25;10.10;99.90
32322;DHT22;61553;48.994;8.940;2023-03-14T02:00:54;10.00;99.90
32322;DHT22;61553;48.994;8.940;2023-03-14T02:03:21;10.00;99.90
32322;DHT22;61553;48.994;8.940;2023-03-14T02:05:48;9.90;99.90
32322;DHT22;61553;48.994;8.940;2023-03-14T02:08:18;9.80;99.90
32322;DHT22;61553;48.994;8.940;2023-03-14T02:10:47;9.80;99.90
32322;DHT22;61553;48.994;8.940;2023-03-14T02:13:15;9.90;99.90
32322;DHT22;61553;48.994;8.940;2023-03-14T02:15:41;9.90;99.90
32322;DHT22;61553;48.994;8.940;2023-03-14T02:18:07;9.90;99.90
32322;DHT22;61553;48.994;8.940;2023-03-14T02:20:57;9.90;99.90
32322;DHT22;61553;48.994;8.940;2023-03-14T02:26:44;9.90;99.90
32322;DHT22;61553;48.994;8.940;2023-03-14T02:29:10;9.90;99.90
32322;DHT22;61553;48.994;8.940;2023-03-14T02:31:36;9.80;99.90
32322;DHT22;61553;48.994;8.940;2023-03-14T02:34:02;9.70;99.90
32322;DHT22;61553;48.994;8.940;2023-03-14T02:36:29;9.70;99.90
32322;DHT22;61553;48.994;8.940;2023-03-14T02:39:01;9.70;99.90
32322;DHT22;61553;48.994;8.940;2023-03-14T02:41:30;9.60;99.90
32322;DHT22;61553;48.994;8.940;2023-03-14T02:43:56;9.60;99.90
32322;DHT22;61553;48.994;8.940;2023-03-14T02:46:22;9.60;99.90
32322;DHT22;61553;48.994;8.940;2023-03-14T02:48:51;9.60;99.90
32322;DHT22;61553;48.994;8.940;2023-03-14T02:51:20;9.60;99.90
32322;DHT22;61553;48.994;8.940;2023-03-14T02:53:46;9.60;99.90
32322;DHT22;61553;48.994;8.940;2023-03-14T02:56:11;9.60;99.90
32322;DHT22;61553;48.994;8.940;2023-03-14T02:58:37;9.60;99.90
32322;DHT22;61553;48.994;8.940;2023-03-14T03:01:04;9.60;99.90
32322;DHT22;61553;48.994;8.940;2023-03-14T03:03:30;9.60;99.90
32322;DHT22;61553;48.994;8.940;2023-03-14T03:05:56;9.70;99.90
32322;DHT22;61553;48.994;8.940;2023-03-14T03:08:23;9.70;99.90
32322;DHT22;61553;48.994;8.940;2023-03-14T03:10:49;9.70;99.90
32322;DHT22;61553;48.994;8.940;2023-03-14T03:13:15;9.70;99.90
32322;DHT22;61553;48.994;8.940;2023-03-14T03:15:41;9.70;99.90
32322;DHT22;61553;48.994;8.940;2023-03-14T03:18:07;9.80;99.90
32322;DHT22;61553;48.994;8.940;2023-03-14T03:20:33;9.70;99.90
32322;DHT22;61553;48.994;8.940;2023-03-14T03:22:59;9.70;99.90
32322;DHT22;61553;48.994;8.940;2023-03-14T03:25:25;9.70;99.90
32322;DHT22;61553;48.994;8.940;2023-03-14T03:27:51;9.70;99.90
32322;DHT22;61553;48.994;8.940;2023-03-14T03:30:17;9.70;99.90
32322;DHT22;61553;48.994;8.940;2023-03-14T03:32:43;9.70;99.90
32322;DHT22;61553;48.994;8.940;2023-03-14T03:35:09;9.60;99.90
32322;DHT22;61553;48.994;8.940;2023-03-14T03:37:35;9.60;99.90
32322;DHT22;61553;48.994;8.940;2023-03-14T03:40:00;9.60;99.90
32322;DHT22;61553;48.994;8.940;2023-03-14T03:42:27;9.50;99.90
32322;DHT22;61553;48.994;8.940;2023-03-14T03:44:53;9.50;99.90
32322;DHT22;61553;48.994;8.940;2023-03-14T03:47:18;9.50;99.90
32322;DHT22;61553;48.994;8.940;2023-03-14T03:49:44;9.40;99.90
32322;DHT22;61553;48.994;8.940;2023-03-14T03:52:10;9.40;99.90
32322;DHT22;61553;48.994;8.940;2023-03-14T03:54:36;9.20;99.90
32322;DHT22;61553;48.994;8.940;2023-03-14T03:57:01;9.20;99.90
32322;DHT22;61553;48.994;8.940;2023-03-14T03:59:27;9.10;99.90
32322;DHT22;61553;48.994;8.940;2023-03-14T04:01:53;9.00;99.90
32322;DHT22;61553;48.994;8.940;2023-03-14T04:04:18;8.90;99.90
32322;DHT22;61553;48.994;8.940;2023-03-14T04:06:44;8.90;99.90
32322;DHT22;61553;48.994;8.940;2023-03-14T04:09:10;8.80;99.90
32322;DHT22;61553;48.994;8.940;2023-03-14T04:11:36;8.80;99.90
32322;DHT22;61553;48.994;8.940;2023-03-14T04:14:02;8.80;99.90
32322;DHT22;61553;48.994;8.940;2023-03-14T04:16:28;8.80;99.90
32322;DHT22;61553;48.994;8.940;2023-03-14T04:18:54;8.80;99.90
32322;DHT22;61553;48.994;8.940;2023-03-14T04:21:20;8.80;99.90
32322;DHT22;61553;48.994;8.940;2023-03-14T04:23:45;8.80;99.90
32322;DHT22;61553;48.994;8.940;2023-03-14T04:26:11;8.80;99.90
32322;DHT22;61553;48.994;8.940;2023-03-14T04:28:37;8.80;99.90
32322;DHT22;61553;48.994;8.940;2023-03-14T04:31:12;8.80;99.90
32322;DHT22;61553;48.994;8.940;2023-03-14T04:33:38;8.80;99.90
32322;DHT22;61553;48.994;8.940;2023-03-14T04:36:05;8.70;99.90
32322;DHT22;61553;48.994;8.940;2023-03-14T04:38:32;8.70;99.90
32322;DHT22;61553;48.994;8.940;2023-03-14T04:40:58;8.70;99.90
32322;DHT22;61553;48.994;8.940;2023-03-14T04:43:24;8.80;99.90
32322;DHT22;61553;48.994;8.940;2023-03-14T04:45:54;9.00;99.90
32322;DHT22;61553;48.994;8.940;2023-03-14T04:48:21;9.00;99.90
32322;DHT22;61553;48.994;8.940;2023-03-14T04:50:47;9.00;99.90
32322;DHT22;61553;48.994;8.940;2023-03-14T04:53:13;9.10;99.90
32322;DHT22;61553;48.994;8.940;2023-03-14T04:55:39;9.00;99.90
32322;DHT22;61553;48.994;8.940;2023-03-14T04:58:05;9.00;99.90
32322;DHT22;61553;48.994;8.940;2023-03-14T05:00:31;8.90;99.90
32322;DHT22;61553;48.994;8.940;2023-03-14T05:02:57;8.80;99.90
32322;DHT22;61553;48.994;8.940;2023-03-14T05:05:22;8.70;99.90
32322;DHT22;61553;48.994;8.940;2023-03-14T05:07:48;8.70;99.90
32322;DHT22;61553;48.994;8.940;2023-03-14T05:10:13;8.60;99.90
32322;DHT22;61553;48.994;8.940;2023-03-14T05:12:39;8.60;99.90
32322;DHT22;61553;48.994;8.940;2023-03-14T05:15:05;8.50;99.90
32322;DHT22;61553;48.994;8.940;2023-03-14T05:17:34;8.50;99.90
32322;DHT22;61553;48.994;8.940;2023-03-14T05:20:00;8.40;99.90
32322;DHT22;61553;48.994;8.940;2023-03-14T05:22:26;8.40;99.90
32322;DHT22;61553;48.994;8.940;2023-03-14T05:24:52;8.40;99.90
32322;DHT22;61553;48.994;8.940;2023-03-14T05:27:22;8.50;99.90
32322;DHT22;61553;48.994;8.940;2023-03-14T05:29:47;8.50;99.90
32322;DHT22;61553;48.994;8.940;2023-03-14T05:32:13;8.50;99.90
32322;DHT22;61553;48.994;8.940;2023-03-14T05:34:38;8.60;99.90
32322;DHT22;61553;48.994;8.940;2023-03-14T05:37:04;8.70;99.90
32322;DHT22;61553;48.994;8.940;2023-03-14T05:39:30;8.90;99.90
32322;DHT22;61553;48.994;8.940;2023-03-14T05:41:55;8.90;99.90
32322;DHT22;61553;48.994;8.940;2023-03-14T05:44:21;9.00;99.90
32322;DHT22;61553;48.994;8.940;2023-03-14T05:46:47;9.10;99.90
32322;DHT22;61553;48.994;8.940;2023-03-14T05:49:13;9.10;99.90
32322;DHT22;61553;48.994;8.940;2023-03-14T05:51:38;9.10;99.90
32322;DHT22;61553;48.994;8.940;2023-03-14T05:54:04;9.10;99.90
32322;DHT22;61553;48.994;8.940;2023-03-14T05:56:30;9.20;99.90
32322;DHT22;61553;48.994;8.940;2023-03-14T05:58:55;9.20;99.90
32322;DHT22;61553;48.994;8.940;2023-03-14T06:01:21;9.20;99.90
32322;DHT22;61553;48.994;8.940;2023-03-14T06:03:46;9.30;99.90
32322;DHT22;61553;48.994;8.940;2023-03-14T06:06:12;9.30;99.90
32322;DHT22;61553;48.994;8.940;2023-03-14T06:08:38;9.30;99.90
32322;DHT22;61553;48.994;8.940;2023-03-14T06:11:04;9.30;99.90
32322;DHT22;61553;48.994;8.940;2023-03-14T06:13:30;9.30;99.90
32322;DHT22;61553;48.994;8.940;2023-03-14T06:15:55;9.30;99.90
32322;DHT22;61553;48.994;8.940;2023-03-14T06:18:21;9.20;99.90
32322;DHT22;61553;48.994;8.940;2023-03-14T06:20:46;9.20;99.90
32322;DHT22;61553;48.994;8.940;2023-03-14T06:23:12;9.30;99.90
32322;DHT22;61553;48.994;8.940;2023-03-14T06:25:38;9.40;99.90
32322;DHT22;61553;48.994;8.940;2023-03-14T06:28:03;9.30;99.90
32322;DHT22;61553;48.994;8.940;2023-03-14T06:30:29;9.30;99.90
32322;DHT22;61553;48.994;8.940;2023-03-14T06:32:55;9.40;99.90
32322;DHT22;61553;48.994;8.940;2023-03-14T06:35:21;9.50;99.90
32322;DHT22;61553;48.994;8.940;2023-03-14T06:37:47;9.50;99.90
32322;DHT22;61553;48.994;8.940;2023-03-14T06:40:13;9.60;99.90
32322;DHT22;61553;48.994;8.940;2023-03-14T06:42:44;9.60;99.90
32322;DHT22;61553;48.994;8.940;2023-03-14T06:45:10;9.60;99.90
32322;DHT22;61553;48.994;8.940;2023-03-14T06:47:35;9.50;99.90
32322;DHT22;61553;48.994;8.940;2023-03-14T06:50:01;9.40;99.90
32322;DHT22;61553;48.994;8.940;2023-03-14T06:52:27;9.50;99.90
32322;DHT22;61553;48.994;8.940;2023-03-14T06:54:52;9.70;99.90
32322;DHT22;61553;48.994;8.940;2023-03-14T06:57:18;9.90;99.90
32322;DHT22;61553;48.994;8.940;2023-03-14T06:59:44;10.10;99.90
32322;DHT22;61553;48.994;8.940;2023-03-14T07:02:12;10.40;99.90
32322;DHT22;61553;48.994;8.940;2023-03-14T07:04:38;10.70;99.90
32322;DHT22;61553;48.994;8.940;2023-03-14T07:07:04;10.90;99.90
32322;DHT22;61553;48.994;8.940;2023-03-14T07:09:31;11.20;99.90
32322;DHT22;61553;48.994;8.940;2023-03-14T07:11:57;11.30;99.90
32322;DHT22;61553;48.994;8.940;2023-03-14T07:14:22;11.40;99.90
32322;DHT22;61553;48.994;8.940;2023-03-14T07:16:48;11.50;99.90
32322;DHT22;61553;48.994;8.940;2023-03-14T07:19:14;11.50;99.90
32322;DHT22;61553;48.994;8.940;2023-03-14T07:21:39;11.50;99.90
32322;DHT22;61553;48.994;8.940;2023-03-14T07:24:05;11.50;99.90
32322;DHT22;61553;48.994;8.940;2023-03-14T07:26:31;11.50;99.90
32322;DHT22;61553;48.994;8.940;2023-03-14T07:28:56;11.60;99.90
32322;DHT22;61553;48.994;8.940;2023-03-14T07:31:22;11.70;99.90
32322;DHT22;61553;48.994;8.940;2023-03-14T07:33:48;11.80;99.90
32322;DHT22;61553;48.994;8.940;2023-03-14T07:36:14;12.10;99.90
32322;DHT22;61553;48.994;8.940;2023-03-14T07:38:39;12.30;99.90
32322;DHT22;61553;48.994;8.940;2023-03-14T07:41:06;12.60;99.90
32322;DHT22;61553;48.994;8.940;2023-03-14T07:43:32;12.70;99.90
32322;DHT22;61553;48.994;8.940;2023-03-14T07:45:58;12.80;99.90
32322;DHT22;61553;48.994;8.940;2023-03-14T07:48:24;13.10;99.90
32322;DHT22;61553;48.994;8.940;2023-03-14T07:50:54;13.20;99.90
32322;DHT22;61553;48.994;8.940;2023-03-14T07:53:20;13.40;99.90
32322;DHT22;61553;48.994;8.940;2023-03-14T07:55:46;13.50;99.90
32322;DHT22;61553;48.994;8.940;2023-03-14T07:58:12;13.70;99.90
32322;DHT22;61553;48.994;8.940;2023-03-14T08:00:38;14.10;99.90
32322;DHT22;61553;48.994;8.940;2023-03-14T08:03:04;14.90;99.90
32322;DHT22;61553;48.994;8.940;2023-03-14T08:05:29;16.80;96.50
32322;DHT22;61553;48.994;8.940;2023-03-14T08:07:55;19.20;88.00
32322;DHT22;61553;48.994;8.940;2023-03-14T08:10:21;20.60;76.00
32322;DHT22;61553;48.994;8.940;2023-03-14T08:12:54;21.60;70.10
32322;DHT22;61553;48.994;8.940;2023-03-14T08:15:20;22.70;66.70
32322;DHT22;61553;48.994;8.940;2023-03-14T08:17:46;24.40;58.50
32322;DHT22;61553;48.994;8.940;2023-03-14T08:20:17;25.50;55.80
32322;DHT22;61553;48.994;8.940;2023-03-14T08:22:42;26.00;51.30
32322;DHT22;61553;48.994;8.940;2023-03-14T08:25:08;25.70;50.90
32322;DHT22;61553;48.994;8.940;2023-03-14T08:27:34;24.80;51.80
32322;DHT22;61553;48.994;8.940;2023-03-14T08:30:03;23.70;53.20
32322;DHT22;61553;48.994;8.940;2023-03-14T08:32:29;22.30;55.90
32322;DHT22;61553;48.994;8.940;2023-03-14T08:34:55;21.10;57.80
32322;DHT22;61553;48.994;8.940;2023-03-14T08:37:21;20.00;59.90
32322;DHT22;61553;48.994;8.940;2023-03-14T08:39:46;19.00;63.90
32322;DHT22;61553;48.994;8.940;2023-03-14T08:42:12;17.80;68.20
32322;DHT22;61553;48.994;8.940;2023-03-14T08:44:38;16.80;71.60
32322;DHT22;61553;48.994;8.940;2023-03-14T08:47:04;16.30;73.10
32322;DHT22;61553;48.994;8.940;2023-03-14T08:49:29;15.90;73.60
32322;DHT22;61553;48.994;8.940;2023-03-14T08:51:55;15.50;75.90
32322;DHT22;61553;48.994;8.940;2023-03-14T08:54:21;14.90;85.70
32322;DHT22;61553;48.994;8.940;2023-03-14T08:56:46;14.30;90.80
32322;DHT22;61553;48.994;8.940;2023-03-14T08:59:12;14.10;96.00
32322;DHT22;61553;48.994;8.940;2023-03-14T09:01:37;13.70;98.60
32322;DHT22;61553;48.994;8.940;2023-03-14T09:04:03;13.60;99.90
32322;DHT22;61553;48.994;8.940;2023-03-14T09:06:29;13.40;99.90
32322;DHT22;61553;48.994;8.940;2023-03-14T09:08:55;13.20;99.90
32322;DHT22;61553;48.994;8.940;2023-03-14T09:11:20;13.10;99.90
32322;DHT22;61553;48.994;8.940;2023-03-14T09:13:46;13.10;99.90
32322;DHT22;61553;48.994;8.940;2023-03-14T09:16:11;12.90;99.90
32322;DHT22;61553;48.994;8.940;2023-03-14T09:18:37;12.80;99.90
32322;DHT22;61553;48.994;8.940;2023-03-14T09:21:03;12.80;99.90
32322;DHT22;61553;48.994;8.940;2023-03-14T09:23:29;12.80;99.90
32322;DHT22;61553;48.994;8.940;2023-03-14T09:25:58;12.80;99.90
32322;DHT22;61553;48.994;8.940;2023-03-14T09:28:24;12.80;99.90
32322;DHT22;61553;48.994;8.940;2023-03-14T09:30:50;12.80;99.90
32322;DHT22;61553;48.994;8.940;2023-03-14T09:33:16;12.80;99.90
32322;DHT22;61553;48.994;8.940;2023-03-14T09:35:42;12.90;99.90
32322;DHT22;61553;48.994;8.940;2023-03-14T09:38:08;12.80;99.90
32322;DHT22;61553;48.994;8.940;2023-03-14T09:40:37;12.80;99.90
32322;DHT22;61553;48.994;8.940;2023-03-14T09:43:04;12.80;99.90
32322;DHT22;61553;48.994;8.940;2023-03-14T09:45:34;12.80;99.90
32322;DHT22;61553;48.994;8.940;2023-03-14T09:48:01;12.90;99.90
32322;DHT22;61553;48.994;8.940;2023-03-14T09:50:42;12.90;99.90
32322;DHT22;61553;48.994;8.940;2023-03-14T09:53:18;13.00;99.90
32322;DHT22;61553;48.994;8.940;2023-03-14T09:55:46;13.30;99.90
32322;DHT22;61553;48.994;8.940;2023-03-14T09:58:16;13.60;99.90
32322;DHT22;61553;48.994;8.940;2023-03-14T10:00:43;13.80;99.90
32322;DHT22;61553;48.994;8.940;2023-03-14T10:03:21;13.70;99.90
32322;DHT22;61553;48.994;8.940;2023-03-14T10:05:47;13.70;99.90
32322;DHT22;61553;48.994;8.940;2023-03-14T10:08:13;13.80;99.90
32322;DHT22;61553;48.994;8.940;2023-03-14T10:10:40;13.80;99.90
32322;DHT22;61553;48.994;8.940;2023-03-14T10:13:23;13.80;99.90
32322;DHT22;61553;48.994;8.940;2023-03-14T10:16:03;13.80;99.90
32322;DHT22;61553;48.994;8.940;2023-03-14T10:18:30;13.90;99.90
32322;DHT22;61553;48.994;8.940;2023-03-14T10:23:51;14.20;99.90
32322;DHT22;61553;48.994;8.940;2023-03-14T10:26:23;14.30;99.90
32322;DHT22;61553;48.994;8.940;2023-03-14T10:29:08;14.30;99.90
32322;DHT22;61553;48.994;8.940;2023-03-14T10:34:34;14.10;99.90
32322;DHT22;61553;48.994;8.940;2023-03-14T10:37:20;14.00;99.90
32322;DHT22;61553;48.994;8.940;2023-03-14T10:39:49;13.80;99.90
32322;DHT22;61553;48.994;8.940;2023-03-14T10:42:28;13.70;99.90
32322;DHT22;61553;48.994;8.940;2023-03-14T10:44:57;13.60;99.90
32322;DHT22;61553;48.994;8.940;2023-03-14T10:47:26;13.50;99.90
32322;DHT22;61553;48.994;8.940;2023-03-14T10:49:54;13.40;99.90
32322;DHT22;61553;48.994;8.940;2023-03-14T10:52:28;13.20;99.90
32322;DHT22;61553;48.994;8.940;2023-03-14T10:54:56;13.40;99.90
32322;DHT22;61553;48.994;8.940;2023-03-14T10:57:22;13.30;99.90
32322;DHT22;61553;48.994;8.940;2023-03-14T10:59:48;13.20;99.90
32322;DHT22;61553;48.994;8.940;2023-03-14T11:05:34;12.80;99.90
32322;DHT22;61553;48.994;8.940;2023-03-14T11:08:11;12.80;99.90
32322;DHT22;61553;48.994;8.940;2023-03-14T11:10:44;12.80;99.90
32322;DHT22;61553;48.994;8.940;2023-03-14T11:13:39;12.80;99.90
32322;DHT22;61553;48.994;8.940;2023-03-14T11:21:59;13.10;99.90
32322;DHT22;61553;48.994;8.940;2023-03-14T11:27:34;12.70;99.90
32322;DHT22;61553;48.994;8.940;2023-03-14T11:38:29;11.90;99.90
32322;DHT22;61553;48.994;8.940;2023-03-14T11:40:57;11.90;99.90
32322;DHT22;61553;48.994;8.940;2023-03-14T11:43:30;11.90;99.90
32322;DHT22;61553;48.994;8.940;2023-03-14T11:46:48;11.90;99.90
32322;DHT22;61553;48.994;8.940;2023-03-14T11:51:24;11.60;99.90
32322;DHT22;61553;48.994;8.940;2023-03-14T11:54:02;11.40;99.90
32322;DHT22;61553;48.994;8.940;2023-03-14T11:59:05;11.30;99.90
32322;DHT22;61553;48.994;8.940;2023-03-14T12:01:58;11.30;99.90
32322;DHT22;61553;48.994;8.940;2023-03-14T12:04:34;11.30;99.90
32322;DHT22;61553;48.994;8.940;2023-03-14T12:07:17;11.40;99.90
32322;DHT22;61553;48.994;8.940;2023-03-14T12:09:45;11.40;99.90
32322;DHT22;61553;48.994;8.940;2023-03-14T12:12:15;11.40;99.90
32322;DHT22;61553;48.994;8.940;2023-03-14T12:14:50;11.30;99.90
32322;DHT22;61553;48.994;8.940;2023-03-14T12:17:22;11.00;99.90
32322;DHT22;61553;48.994;8.940;2023-03-14T12:20:22;10.80;99.90
32322;DHT22;61553;48.994;8.940;2023-03-14T12:22:53;10.40;99.90
32322;DHT22;61553;48.994;8.940;2023-03-14T12:25:25;10.10;99.90
32322;DHT22;61553;48.994;8.940;2023-03-14T12:30:33;10.00;99.90
32322;DHT22;61553;48.994;8.940;2023-03-14T12:33:28;10.20;99.90
32322;DHT22;61553;48.994;8.940;2023-03-14T12:36:02;10.10;99.90
32322;DHT22;61553;48.994;8.940;2023-03-14T12:41:36;9.70;99.90
32322;DHT22;61553;48.994;8.940;2023-03-14T12:44:45;9.60;99.90
32322;DHT22;61553;48.994;8.940;2023-03-14T12:49:50;9.50;99.90
32322;DHT22;61553;48.994;8.940;2023-03-14T12:57:36;9.70;99.90
32322;DHT22;61553;48.994;8.940;2023-03-14T13:00:19;9.90;99.90
32322;DHT22;61553;48.994;8.940;2023-03-14T13:02:47;10.00;99.90
32322;DHT22;61553;48.994;8.940;2023-03-14T13:05:20;10.40;99.90
32322;DHT22;61553;48.994;8.940;2023-03-14T13:10:30;10.80;99.90
32322;DHT22;61553;48.994;8.940;2023-03-14T13:13:22;10.70;99.90
32322;DHT22;61553;48.994;8.940;2023-03-14T13:15:54;10.60;99.60
32322;DHT22;61553;48.994;8.940;2023-03-14T13:18:43;10.60;98.90
32322;DHT22;61553;48.994;8.940;2023-03-14T13:21:21;10.70;95.90
32322;DHT22;61553;48.994;8.940;2023-03-14T13:26:32;10.60;93.20
32322;DHT22;61553;48.994;8.940;2023-03-14T13:28:59;10.60;93.80
32322;DHT22;61553;48.994;8.940;2023-03-14T13:31:26;10.50;91.30
32322;DHT22;61553;48.994;8.940;2023-03-14T13:34:04;10.50;91.20
32322;DHT22;61553;48.994;8.940;2023-03-14T13:36:30;10.50;90.80
32322;DHT22;61553;48.994;8.940;2023-03-14T13:38:58;10.60;91.00
32322;DHT22;61553;48.994;8.940;2023-03-14T13:41:25;10.80;90.30
32322;DHT22;61553;48.994;8.940;2023-03-14T13:43:51;10.70;90.20
32322;DHT22;61553;48.994;8.940;2023-03-14T13:46:22;10.80;89.10
32322;DHT22;61553;48.994;8.940;2023-03-14T13:48:54;10.60;87.60
32322;DHT22;61553;48.994;8.940;2023-03-14T13:51:21;10.50;88.20
32322;DHT22;61553;48.994;8.940;2023-03-14T13:53:52;10.50;85.10
32322;DHT22;61553;48.994;8.940;2023-03-14T13:56:27;10.70;85.00
32322;DHT22;61553;48.994;8.940;2023-03-14T13:58:52;10.90;84.70
32322;DHT22;61553;48.994;8.940;2023-03-14T14:03:49;11.00;82.00
32322;DHT22;61553;48.994;8.940;2023-03-14T14:06:36;11.10;83.20
32322;DHT22;61553;48.994;8.940;2023-03-14T14:09:38;10.90;79.70
32322;DHT22;61553;48.994;8.940;2023-03-14T14:11:59;10.80;81.60
32322;DHT22;61553;48.994;8.940;2023-03-14T14:14:36;10.80;81.70
32322;DHT22;61553;48.994;8.940;2023-03-14T14:17:06;10.70;81.10
32322;DHT22;61553;48.994;8.940;2023-03-14T14:19:34;10.60;80.90
32322;DHT22;61553;48.994;8.940;2023-03-14T14:22:01;10.40;79.90
32322;DHT22;61553;48.994;8.940;2023-03-14T14:24:32;10.20;78.90
32322;DHT22;61553;48.994;8.940;2023-03-14T14:29:37;10.00;81.60
32322;DHT22;61553;48.994;8.940;2023-03-14T14:32:13;10.00;83.70
32322;DHT22;61553;48.994;8.940;2023-03-14T14:34:40;10.10;83.90
32322;DHT22;61553;48.994;8.940;2023-03-14T14:37:24;10.20;80.40
32322;DHT22;61553;48.994;8.940;2023-03-14T14:39:54;10.40;80.80
32322;DHT22;61553;48.994;8.940;2023-03-14T14:42:24;10.60;79.20
32322;DHT22;61553;48.994;8.940;2023-03-14T14:44:51;10.60;79.00
32322;DHT22;61553;48.994;8.940;2023-03-14T14:47:25;10.60;81.50
32322;DHT22;61553;48.994;8.940;2023-03-14T14:49:53;10.50;82.10
32322;DHT22;61553;48.994;8.940;2023-03-14T14:52:46;10.60;79.20
32322;DHT22;61553;48.994;8.940;2023-03-14T14:55:17;10.80;79.30
32322;DHT22;61553;48.994;8.940;2023-03-14T14:57:50;10.90;80.30
32322;DHT22;61553;48.994;8.940;2023-03-14T15:00:22;10.90;76.70
32322;DHT22;61553;48.994;8.940;2023-03-14T15:02:58;10.70;77.40
32322;DHT22;61553;48.994;8.940;2023-03-14T15:05:26;10.50;78.30
32322;DHT22;61553;48.994;8.940;2023-03-14T15:07:52;10.30;78.30
32322;DHT22;61553;48.994;8.940;2023-03-14T15:10:21;10.10;78.00
32322;DHT22;61553;48.994;8.940;2023-03-14T15:12:47;10.10;80.20
32322;DHT22;61553;48.994;8.940;2023-03-14T15:15:14;10.20;81.30
32322;DHT22;61553;48.994;8.940;2023-03-14T15:17:39;10.40;81.20
32322;DHT22;61553;48.994;8.940;2023-03-14T15:20:10;10.40;78.80
32322;DHT22;61553;48.994;8.940;2023-03-14T15:22:39;10.40;79.00
32322;DHT22;61553;48.994;8.940;2023-03-14T15:25:05;10.20;79.50
32322;DHT22;61553;48.994;8.940;2023-03-14T15:27:31;9.90;79.50
32322;DHT22;61553;48.994;8.940;2023-03-14T15:29:58;9.60;80.30
32322;DHT22;61553;48.994;8.940;2023-03-14T15:32:24;9.50;81.40
32322;DHT22;61553;48.994;8.940;2023-03-14T15:34:50;9.40;80.20
32322;DHT22;61553;48.994;8.940;2023-03-14T15:37:16;9.30;82.10
32322;DHT22;61553;48.994;8.940;2023-03-14T15:39:45;9.40;82.50
32322;DHT22;61553;48.994;8.940;2023-03-14T15:42:11;9.30;83.00
32322;DHT22;61553;48.994;8.940;2023-03-14T15:44:37;9.20;84.50
32322;DHT22;61553;48.994;8.940;2023-03-14T15:47:04;9.10;82.30
32322;DHT22;61553;48.994;8.940;2023-03-14T15:49:31;9.10;84.30
32322;DHT22;61553;48.994;8.940;2023-03-14T15:51:58;9.00;85.10
32322;DHT22;61553;48.994;8.940;2023-03-14T15:54:24;8.90;86.60
32322;DHT22;61553;48.994;8.940;2023-03-14T15:56:54;8.90;88.60
32322;DHT22;61553;48.994;8.940;2023-03-14T15:59:20;8.80;87.80
32322;DHT22;61553;48.994;8.940;2023-03-14T16:01:46;8.70;87.90
32322;DHT22;61553;48.994;8.940;2023-03-14T16:04:13;8.70;88.20
32322;DHT22;61553;48.994;8.940;2023-03-14T16:06:39;8.60;90.10
32322;DHT22;61553;48.994;8.940;2023-03-14T16:09:04;8.50;90.60
32322;DHT22;61553;48.994;8.940;2023-03-14T16:11:30;8.50;90.70
32322;DHT22;61553;48.994;8.940;2023-03-14T16:13:56;8.50;90.90
32322;DHT22;61553;48.994;8.940;2023-03-14T16:16:21;8.50;90.20
32322;DHT22;61553;48.994;8.940;2023-03-14T16:18:47;8.50;90.30
32322;DHT22;61553;48.994;8.940;2023-03-14T16:21:17;8.50;90.90
32322;DHT22;61553;48.994;8.940;2023-03-14T16:23:44;8.60;91.30
32322;DHT22;61553;48.994;8.940;2023-03-14T16:26:12;8.60;90.50
32322;DHT22;61553;48.994;8.940;2023-03-14T16:28:40;8.50;91.50
32322;DHT22;61553;48.994;8.940;2023-03-14T16:31:08;8.50;91.60
32322;DHT22;61553;48.994;8.940;2023-03-14T16:33:35;8.60;91.90
32322;DHT22;61553;48.994;8.940;2023-03-14T16:36:03;8.60;91.70
32322;DHT22;61553;48.994;8.940;2023-03-14T16:38:33;8.60;91.90
32322;DHT22;61553;48.994;8.940;2023-03-14T16:41:02;8.70;92.50
32322;DHT22;61553;48.994;8.940;2023-03-14T16:43:28;8.60;91.80
32322;DHT22;61553;48.994;8.940;2023-03-14T16:45:57;8.60;91.40
32322;DHT22;61553;48.994;8.940;2023-03-14T16:48:24;8.60;90.40
32322;DHT22;61553;48.994;8.940;2023-03-14T16:50:50;8.60;90.70